Time;durP1;ratioP1;P1;durP2;ratioP2;P2;SDS_P1;SDS_P2;PMS_P1;PMS_P2;Temp;Humidity;BMP_temperature;BMP_pressure;BME280_temperature;BME280_humidity;BME280_pressure;Samples;Min_cycle;Max_cycle;Signal;HPM_P1;HPM_P2
2021/09/26 00:01:22;;;;;;;1.10;0.68;;;17.10;99.90;;;;;;6207873;23;20016;-91
2021/09/26 00:03:49;;;;;;;1.17;0.63;;;17.10;99.90;;;;;;6209162;23;20024;-91
2021/09/26 00:06:16;;;;;;;1.13;0.47;;;17.10;99.90;;;;;;6209073;23;20349;-92
2021/09/26 00:08:42;;;;;;;1.67;0.93;;;17.10;99.90;;;;;;6184921;23;20015;-91
2021/09/26 00:11:10;;;;;;;0.77;0.50;;;17.10;99.90;;;;;;6209403;23;20310;-91
2021/09/26 00:13:39;;;;;;;1.50;0.90;;;17.10;99.90;;;;;;6185035;23;20023;-91
2021/09/26 00:16:08;;;;;;;1.27;0.60;;;17.10;99.90;;;;;;6209457;23;20311;-91
2021/09/26 00:18:36;;;;;;;1.50;0.77;;;17.10;99.90;;;;;;6213048;23;20071;-91
2021/09/26 00:21:03;;;;;;;1.33;0.88;;;17.00;99.90;;;;;;6238762;23;20016;-91
2021/09/26 00:23:32;;;;;;;1.20;0.57;;;17.10;99.90;;;;;;6239727;23;20073;-91
2021/09/26 00:26:01;;;;;;;1.02;0.75;;;17.00;99.90;;;;;;6239559;23;20057;-90
2021/09/26 00:28:28;;;;;;;1.30;0.70;;;17.00;99.90;;;;;;6214595;23;20008;-90
2021/09/26 00:30:55;;;;;;;1.45;0.80;;;17.00;99.90;;;;;;6239589;23;20091;-91
2021/09/26 00:33:23;;;;;;;0.77;0.55;;;17.10;99.90;;;;;;6239393;23;20016;-91
2021/09/26 00:35:50;;;;;;;1.25;0.60;;;17.10;99.90;;;;;;6215059;23;20016;-91
2021/09/26 00:38:18;;;;;;;2.72;1.15;;;17.10;99.90;;;;;;6189688;23;20099;-91
2021/09/26 00:40:47;;;;;;;0.28;0.28;;;17.00;99.90;;;;;;6215345;23;20069;-91
2021/09/26 00:43:14;;;;;;;1.13;0.55;;;17.00;99.90;;;;;;6214450;23;20044;-91
2021/09/26 00:45:41;;;;;;;1.95;0.85;;;17.00;99.90;;;;;;6214399;23;20012;-92
2021/09/26 00:48:08;;;;;;;1.30;0.73;;;17.00;99.90;;;;;;6214438;23;20012;-91
2021/09/26 00:50:35;;;;;;;1.02;0.68;;;17.00;99.90;;;;;;6239447;23;20490;-91
2021/09/26 00:53:03;;;;;;;1.23;0.80;;;17.00;99.90;;;;;;6239027;23;20409;-90
2021/09/26 00:55:31;;;;;;;0.70;0.63;;;17.00;99.90;;;;;;6238759;23;20061;-90
2021/09/26 00:57:58;;;;;;;1.38;0.80;;;17.00;99.90;;;;;;6190762;23;20012;-91
2021/09/26 01:00:27;;;;;;;2.20;0.57;;;17.00;99.90;;;;;;6214411;23;20016;-91
2021/09/26 01:02:54;;;;;;;1.05;0.60;;;17.00;99.90;;;;;;6239426;23;20023;-90
2021/09/26 01:05:27;;;;;;;0.70;0.45;;;17.00;99.90;;;;;;6213884;23;20314;-90
2021/09/26 01:08:04;;;;;;;1.52;0.70;;;17.00;99.90;;;;;;6239016;23;20016;-90
2021/09/26 01:11:10;;;;;;;1.13;0.70;;;17.00;99.90;;;;;;6239166;23;20310;-90
2021/09/26 01:13:56;;;;;;;2.90;0.80;;;17.00;99.90;;;;;;6238610;23;20012;-91
2021/09/26 01:16:29;;;;;;;;;;;17.00;99.90;;;;;;6239455;23;20023;-91
2021/09/26 01:19:14;;;;;;;1.58;0.70;;;17.00;99.90;;;;;;6241272;23;19919;-91
2021/09/26 01:21:53;;;;;;;1.85;0.80;;;17.00;99.90;;;;;;6289074;23;20020;-91
2021/09/26 01:24:19;;;;;;;1.40;0.90;;;17.00;99.90;;;;;;6288769;23;20016;-91
2021/09/26 01:27:14;;;;;;;0.93;0.40;;;17.00;99.90;;;;;;6289857;23;20074;-91
2021/09/26 01:29:56;;;;;;;1.95;0.70;;;17.00;99.90;;;;;;6289366;23;20015;-92
2021/09/26 01:32:24;;;;;;;0.88;0.47;;;16.90;99.90;;;;;;6264004;23;20012;-91
2021/09/26 01:34:55;;;;;;;1.88;0.82;;;17.00;99.90;;;;;;6263813;23;20016;-91
2021/09/26 01:37:34;;;;;;;0.47;0.30;;;17.00;99.90;;;;;;6263743;23;20016;-91
2021/09/26 01:40:15;;;;;;;0.70;0.47;;;17.00;99.90;;;;;;6264228;23;20329;-91
2021/09/26 01:42:53;;;;;;;1.35;0.85;;;17.00;99.90;;;;;;6264176;23;20012;-91
2021/09/26 01:45:42;;;;;;;3.15;0.98;;;17.00;99.90;;;;;;6263613;23;20015;-91
2021/09/26 01:48:14;;;;;;;1.30;0.70;;;17.00;99.90;;;;;;6289264;23;20012;-92
2021/09/26 01:50:42;;;;;;;2.45;1.20;;;16.90;99.90;;;;;;6289194;23;20337;-92
2021/09/26 01:53:11;;;;;;;2.40;0.95;;;17.00;99.90;;;;;;6263661;23;20500;-91
2021/09/26 01:55:39;;;;;;;1.13;0.63;;;16.90;99.90;;;;;;6263247;23;20018;-91
2021/09/26 01:58:06;;;;;;;1.40;0.70;;;16.90;99.90;;;;;;6263839;23;20024;-91
2021/09/26 02:00:33;;;;;;;3.08;0.77;;;16.90;99.90;;;;;;6263099;23;20051;-91
2021/09/26 02:03:04;;;;;;;0.98;0.60;;;16.90;99.90;;;;;;6289089;23;20452;-91
2021/09/26 02:05:32;;;;;;;0.52;0.38;;;16.90;99.90;;;;;;6263322;23;20012;-91
2021/09/26 02:08:00;;;;;;;2.70;0.63;;;16.90;99.90;;;;;;6263585;23;20012;-91
2021/09/26 02:10:28;;;;;;;1.90;0.85;;;16.90;99.90;;;;;;6263347;23;20142;-91
2021/09/26 02:12:56;;;;;;;1.50;0.88;;;16.90;99.90;;;;;;6238389;23;20098;-91
2021/09/26 02:15:26;;;;;;;1.48;0.80;;;16.90;99.90;;;;;;6263430;23;20344;-91
2021/09/26 02:17:54;;;;;;;2.60;1.30;;;16.90;99.90;;;;;;6263702;23;20095;-91
2021/09/26 02:20:22;;;;;;;0.75;0.47;;;16.90;99.90;;;;;;6238145;23;20091;-90
2021/09/26 02:22:50;;;;;;;1.77;0.88;;;16.90;99.90;;;;;;6263152;23;20020;-91
2021/09/26 02:25:19;;;;;;;2.45;1.27;;;16.80;99.90;;;;;;6238200;23;20012;-90
2021/09/26 02:27:46;;;;;;;2.08;0.93;;;16.90;99.90;;;;;;6263179;23;20066;-91
2021/09/26 02:30:14;;;;;;;1.63;0.88;;;16.90;99.90;;;;;;6263571;23;20016;-91
2021/09/26 02:32:42;;;;;;;1.13;0.60;;;16.90;99.90;;;;;;6238071;23;20023;-91
2021/09/26 02:35:11;;;;;;;1.42;0.85;;;16.80;99.90;;;;;;6238950;23;20015;-91
2021/09/26 02:37:38;;;;;;;2.08;0.82;;;16.80;99.90;;;;;;6238604;23;20048;-91
2021/09/26 02:40:06;;;;;;;2.72;0.80;;;16.80;99.90;;;;;;6238616;23;20016;-90
2021/09/26 02:42:33;;;;;;;2.40;1.00;;;16.80;99.90;;;;;;6263186;23;20016;-91
2021/09/26 02:45:29;;;;;;;0.80;0.60;;;16.80;99.90;;;;;;6288403;23;20015;-91
2021/09/26 02:48:17;;;;;;;3.00;1.45;;;16.80;99.90;;;;;;6263277;23;20008;-91
2021/09/26 02:50:46;;;;;;;1.30;0.80;;;16.80;99.90;;;;;;6263089;23;20015;-91
2021/09/26 02:53:14;;;;;;;1.40;0.68;;;16.80;99.90;;;;;;6263280;23;20056;-92
2021/09/26 02:55:43;;;;;;;4.43;0.70;;;16.80;99.90;;;;;;6237927;23;20318;-91
2021/09/26 02:58:10;;;;;;;1.30;0.60;;;16.80;99.90;;;;;;6263551;23;20016;-91
2021/09/26 03:00:40;;;;;;;1.85;0.68;;;16.70;99.90;;;;;;6237613;23;20019;-91
2021/09/26 03:03:13;;;;;;;2.05;0.80;;;16.70;99.90;;;;;;6263296;23;20073;-91
2021/09/26 03:05:42;;;;;;;1.65;0.70;;;16.70;99.90;;;;;;6238536;23;20009;-91
2021/09/26 03:08:09;;;;;;;1.23;0.68;;;16.70;99.90;;;;;;6263374;23;20008;-91
2021/09/26 03:10:37;;;;;;;1.50;0.68;;;16.70;99.90;;;;;;6262922;23;20012;-93
2021/09/26 03:13:04;;;;;;;0.98;0.60;;;16.70;99.90;;;;;;6263300;23;20440;-91
2021/09/26 03:15:32;;;;;;;1.42;0.60;;;16.70;99.90;;;;;;6262915;23;20016;-92
2021/09/26 03:17:58;;;;;;;2.63;0.85;;;16.70;99.90;;;;;;6263200;23;20051;-91
2021/09/26 03:20:25;;;;;;;0.75;0.38;;;16.70;99.90;;;;;;6262919;23;20020;-91
2021/09/26 03:22:54;;;;;;;1.92;0.70;;;16.70;99.90;;;;;;6262412;23;20016;-91
2021/09/26 03:25:21;;;;;;;0.57;0.40;;;16.70;99.90;;;;;;6238423;23;20073;-91
2021/09/26 03:27:48;;;;;;;1.15;0.52;;;16.60;99.90;;;;;;6262464;23;20008;-92
2021/09/26 03:30:16;;;;;;;0.80;0.60;;;16.60;99.90;;;;;;6263287;23;20031;-91
2021/09/26 03:32:43;;;;;;;1.55;0.90;;;16.60;99.90;;;;;;6262730;23;20399;-92
2021/09/26 03:35:11;;;;;;;1.55;0.80;;;16.60;99.90;;;;;;6263750;23;20051;-91
2021/09/26 03:37:38;;;;;;;1.25;0.82;;;16.60;99.90;;;;;;6264556;23;20441;-91
2021/09/26 03:40:07;;;;;;;1.73;0.73;;;16.50;99.90;;;;;;6265047;23;20012;-91
2021/09/26 03:42:34;;;;;;;1.40;0.57;;;16.50;99.90;;;;;;6264798;23;20016;-91
2021/09/26 03:45:01;;;;;;;1.13;0.60;;;16.40;99.90;;;;;;6265101;23;20012;-92
2021/09/26 03:47:28;;;;;;;1.02;0.57;;;16.40;99.90;;;;;;6239746;23;20008;-92
2021/09/26 03:49:55;;;;;;;1.95;0.80;;;16.30;99.90;;;;;;6264519;23;20043;-91
2021/09/26 03:52:22;;;;;;;1.23;0.47;;;16.20;99.90;;;;;;6264805;23;20022;-91
2021/09/26 03:54:50;;;;;;;2.22;0.85;;;16.20;99.90;;;;;;6264442;23;20016;-91
2021/09/26 03:57:21;;;;;;;1.95;0.90;;;16.10;99.90;;;;;;6264814;23;20016;-91
2021/09/26 03:59:47;;;;;;;0.95;0.70;;;16.10;99.90;;;;;;6264423;23;20070;-92
2021/09/26 04:02:14;;;;;;;1.38;0.63;;;16.00;99.90;;;;;;6239586;23;20082;-92
2021/09/26 04:04:41;;;;;;;1.40;0.70;;;16.00;99.90;;;;;;6264177;23;20444;-91
2021/09/26 04:07:08;;;;;;;1.30;0.70;;;15.90;99.90;;;;;;6264344;23;20039;-91
2021/09/26 04:09:35;;;;;;;0.43;0.30;;;15.90;99.90;;;;;;6264888;23;20012;-91
2021/09/26 04:12:02;;;;;;;0.68;0.50;;;15.80;99.90;;;;;;6264273;23;20012;-91
2021/09/26 04:14:28;;;;;;;0.80;0.40;;;15.80;99.90;;;;;;6239512;23;20019;-90
2021/09/26 04:16:55;;;;;;;0.80;0.47;;;15.80;99.90;;;;;;6239446;23;20008;-92
2021/09/26 04:19:22;;;;;;;1.45;0.60;;;15.70;99.90;;;;;;6239454;23;20016;-92
2021/09/26 04:21:50;;;;;;;1.58;0.77;;;15.70;99.90;;;;;;6239452;23;20012;-92
2021/09/26 04:24:18;;;;;;;1.10;0.70;;;15.70;99.90;;;;;;6264466;23;20047;-92
2021/09/26 04:26:45;;;;;;;0.73;0.40;;;15.60;99.90;;;;;;6264742;23;20008;-91
2021/09/26 04:29:12;;;;;;;1.25;0.50;;;15.60;99.90;;;;;;6264285;23;20012;-91
2021/09/26 04:31:39;;;;;;;1.85;0.80;;;15.50;99.90;;;;;;6264512;23;20318;-92
2021/09/26 04:34:06;;;;;;;0.75;0.40;;;15.50;99.90;;;;;;6264616;23;20073;-91
2021/09/26 04:36:33;;;;;;;1.05;0.57;;;15.50;99.90;;;;;;6264327;23;20016;-91
2021/09/26 04:39:00;;;;;;;0.45;0.35;;;15.40;99.90;;;;;;6239501;23;20332;-91
2021/09/26 04:41:26;;;;;;;0.60;0.50;;;15.40;99.90;;;;;;6239591;23;20031;-91
2021/09/26 04:43:53;;;;;;;0.93;0.45;;;15.30;99.90;;;;;;6214294;23;20447;-90
2021/09/26 04:46:20;;;;;;;0.98;0.57;;;15.30;99.90;;;;;;6239209;23;20043;-91
2021/09/26 04:48:46;;;;;;;1.23;0.60;;;15.30;99.90;;;;;;6263778;23;20103;-91
2021/09/26 04:51:13;;;;;;;0.93;0.50;;;15.30;99.90;;;;;;6214706;23;20039;-91
2021/09/26 04:53:40;;;;;;;0.98;0.50;;;15.20;99.90;;;;;;6214723;23;20375;-91
2021/09/26 04:56:07;;;;;;;0.73;0.30;;;15.20;99.90;;;;;;6239239;23;20027;-91
2021/09/26 04:58:33;;;;;;;0.50;0.40;;;15.20;99.90;;;;;;6264331;23;20023;-91
2021/09/26 05:01:00;;;;;;;0.63;0.35;;;15.10;99.90;;;;;;6263964;23;20077;-91
2021/09/26 05:03:27;;;;;;;0.40;0.30;;;15.10;99.90;;;;;;6263959;23;20084;-90
2021/09/26 05:05:53;;;;;;;0.93;0.45;;;15.10;99.90;;;;;;6238797;23;20004;-90
2021/09/26 05:08:20;;;;;;;0.73;0.40;;;15.10;99.90;;;;;;6239230;23;20153;-90
2021/09/26 05:10:49;;;;;;;1.02;0.32;;;15.00;99.90;;;;;;6237952;23;20015;-91
2021/09/26 05:13:16;;;;;;;0.25;0.22;;;15.00;99.90;;;;;;6263247;23;20102;-90
2021/09/26 05:15:43;;;;;;;1.67;0.57;;;14.90;99.90;;;;;;6213559;23;20015;-91
2021/09/26 05:18:09;;;;;;;0.28;0.22;;;14.90;99.90;;;;;;6238100;23;20015;-91
2021/09/26 05:20:36;;;;;;;0.77;0.50;;;14.90;99.90;;;;;;6263781;23;20082;-91
2021/09/26 05:23:03;;;;;;;0.17;0.17;;;14.80;99.90;;;;;;6238867;23;20074;-91
2021/09/26 05:25:31;;;;;;;0.03;0.03;;;14.80;99.90;;;;;;6266320;23;20109;-91
2021/09/26 05:27:57;;;;;;;0.45;0.40;;;14.80;99.90;;;;;;6262784;23;20008;-91
2021/09/26 05:30:25;;;;;;;0.90;0.20;;;14.70;99.90;;;;;;6239482;23;20012;-91
2021/09/26 05:32:52;;;;;;;1.10;0.43;;;14.70;99.90;;;;;;6214604;23;20463;-91
2021/09/26 05:35:19;;;;;;;0.10;0.10;;;14.70;99.90;;;;;;6264557;23;20012;-90
2021/09/26 05:37:45;;;;;;;0.65;0.45;;;14.70;99.90;;;;;;6263946;23;20016;-91
2021/09/26 05:40:13;;;;;;;0.73;0.45;;;14.80;99.90;;;;;;6264191;23;20023;-90
2021/09/26 05:42:40;;;;;;;0.15;0.13;;;14.80;99.90;;;;;;6263829;23;20016;-92
2021/09/26 05:45:07;;;;;;;0.03;0.03;;;14.80;99.90;;;;;;6263745;23;20581;-91
2021/09/26 05:47:34;;;;;;;0.20;0.15;;;14.80;99.90;;;;;;6239447;23;20448;-90
2021/09/26 05:50:01;;;;;;;0.85;0.40;;;14.80;99.90;;;;;;6238367;23;20022;-90
2021/09/26 05:52:27;;;;;;;0.10;0.10;;;14.80;99.90;;;;;;6239067;23;20015;-90
2021/09/26 05:54:54;;;;;;;0.30;0.15;;;14.80;99.90;;;;;;6263665;23;20047;-91
2021/09/26 05:57:21;;;;;;;0.28;0.15;;;14.70;99.90;;;;;;6264042;23;20460;-90
2021/09/26 05:59:47;;;;;;;0.35;0.20;;;14.70;99.90;;;;;;6239083;23;20020;-90
2021/09/26 06:02:22;;;;;;;0.50;0.30;;;14.70;99.90;;;;;;6238045;23;20464;-90
2021/09/26 06:04:50;;;;;;;0.22;0.15;;;14.70;99.90;;;;;;6264054;23;20082;-90
2021/09/26 06:07:17;;;;;;;0.35;0.30;;;14.70;99.90;;;;;;6263701;23;20014;-90
2021/09/26 06:09:44;;;;;;;0.22;0.22;;;14.70;99.90;;;;;;6264155;23;20096;-91
2021/09/26 06:12:11;;;;;;;0.35;0.20;;;14.70;99.90;;;;;;6263518;23;20012;-90
2021/09/26 06:14:39;;;;;;;0.10;0.10;;;14.60;99.90;;;;;;6264023;23;20084;-90
2021/09/26 06:17:06;;;;;;;1.25;0.50;;;14.70;99.90;;;;;;6263193;23;20472;-90
2021/09/26 06:19:33;;;;;;;0.80;0.38;;;14.70;99.90;;;;;;6213831;23;20023;-90
2021/09/26 06:22:00;;;;;;;0.52;0.32;;;14.70;99.90;;;;;;6263164;23;20019;-89
2021/09/26 06:24:27;;;;;;;0.45;0.30;;;14.70;99.90;;;;;;6263303;23;20058;-90
2021/09/26 06:26:54;;;;;;;1.23;0.55;;;14.70;99.90;;;;;;6238712;23;20336;-91
2021/09/26 06:29:21;;;;;;;0.10;0.10;;;14.70;99.90;;;;;;6237947;23;20012;-90
2021/09/26 06:31:48;;;;;;;0.35;0.20;;;14.80;99.90;;;;;;6238576;23;20016;-90
2021/09/26 06:34:15;;;;;;;0.15;0.13;;;14.80;99.90;;;;;;6237784;23;20012;-90
2021/09/26 06:36:42;;;;;;;0.32;0.25;;;14.90;99.90;;;;;;6238691;23;20016;-90
2021/09/26 06:39:09;;;;;;;0.10;0.10;;;14.90;99.90;;;;;;6237812;23;20012;-90
2021/09/26 06:41:36;;;;;;;1.17;0.20;;;14.90;99.90;;;;;;6263168;23;20134;-90
2021/09/26 06:44:03;;;;;;;0.70;0.28;;;14.90;99.90;;;;;;6237654;23;20016;-90
2021/09/26 06:46:30;;;;;;;0.50;0.20;;;15.00;99.90;;;;;;6263549;23;20440;-90
2021/09/26 06:48:57;;;;;;;0.73;0.40;;;15.00;99.90;;;;;;6263176;23;20102;-90
2021/09/26 06:51:23;;;;;;;0.55;0.40;;;15.10;99.90;;;;;;6263150;23;20019;-88
2021/09/26 06:53:50;;;;;;;0.57;0.43;;;15.10;99.90;;;;;;6263258;23;20456;-91
2021/09/26 06:56:17;;;;;;;0.55;0.30;;;15.20;99.90;;;;;;6262670;23;20015;-90
2021/09/26 06:58:44;;;;;;;0.57;0.38;;;15.30;99.90;;;;;;6238208;23;20016;-90
2021/09/26 07:01:11;;;;;;;0.70;0.28;;;15.30;99.90;;;;;;6262958;23;20012;-90
2021/09/26 07:03:37;;;;;;;0.35;0.20;;;15.30;99.90;;;;;;6237987;23;20012;-90
2021/09/26 07:06:04;;;;;;;1.27;0.43;;;15.40;99.90;;;;;;6263184;23;20440;-90
2021/09/26 07:08:31;;;;;;;0.30;0.25;;;15.40;99.90;;;;;;6263208;23;20015;-91
2021/09/26 07:10:58;;;;;;;0.20;0.20;;;15.40;99.90;;;;;;6237815;23;20008;-90
2021/09/26 07:13:25;;;;;;;1.02;0.32;;;15.50;99.90;;;;;;6263010;23;20096;-90
2021/09/26 07:15:51;;;;;;;0.32;0.22;;;15.60;99.90;;;;;;6238055;23;20409;-89
2021/09/26 07:18:18;;;;;;;0.13;0.13;;;15.60;99.90;;;;;;6238110;23;20363;-93
2021/09/26 07:20:45;;;;;;;0.30;0.25;;;15.70;99.90;;;;;;6263116;23;20090;-93
2021/09/26 07:23:12;;;;;;;0.30;0.30;;;15.70;99.90;;;;;;6237763;23;20023;-89
2021/09/26 07:25:46;;;;;;;0.30;0.30;;;15.80;99.90;;;;;;6214164;23;20011;-94
2021/09/26 07:28:13;;;;;;;1.30;0.50;;;15.80;99.90;;;;;;6263040;23;20321;-94
2021/09/26 07:30:40;;;;;;;0.47;0.40;;;15.90;99.90;;;;;;6238862;23;20008;-93
2021/09/26 07:33:07;;;;;;;0.95;0.52;;;16.00;99.90;;;;;;6263560;23;20020;-94
2021/09/26 07:35:33;;;;;;;0.95;0.50;;;16.00;99.90;;;;;;6238406;23;20020;-92
2021/09/26 07:38:00;;;;;;;0.57;0.43;;;16.10;99.90;;;;;;6262929;23;20062;-92
2021/09/26 07:40:27;;;;;;;0.70;0.43;;;16.20;99.90;;;;;;6237823;23;20445;-92
2021/09/26 07:42:54;;;;;;;2.08;0.65;;;16.20;99.90;;;;;;6262966;23;20341;-90
2021/09/26 07:45:21;;;;;;;0.45;0.28;;;16.30;99.90;;;;;;6212747;23;20067;-91
2021/09/26 07:47:48;;;;;;;0.30;0.28;;;16.40;99.90;;;;;;6262966;23;20098;-94
2021/09/26 07:50:17;;;;;;;0.08;0.08;;;16.50;99.90;;;;;;6237853;23;20038;-92
2021/09/26 07:52:44;;;;;;;0.30;0.25;;;16.60;99.90;;;;;;6263339;23;20012;-90
2021/09/26 07:55:14;;;;;;;1.27;0.60;;;16.60;99.90;;;;;;6239289;23;20483;-90
2021/09/26 07:57:41;;;;;;;1.40;0.75;;;16.80;99.90;;;;;;6238059;23;20012;-90
2021/09/26 08:00:08;;;;;;;0.95;0.60;;;16.80;99.90;;;;;;6240252;23;20016;-91
2021/09/26 08:02:35;;;;;;;0.88;0.47;;;16.90;99.90;;;;;;6289328;23;20051;-90
2021/09/26 08:05:06;;;;;;;0.60;0.40;;;17.00;99.90;;;;;;6239616;23;20012;-92
2021/09/26 08:07:33;;;;;;;0.93;0.50;;;17.10;99.90;;;;;;6262650;23;20037;-96
2021/09/26 08:10:00;;;;;;;0.85;0.40;;;17.10;99.90;;;;;;6262822;23;20091;-91
2021/09/26 08:12:27;;;;;;;0.68;0.45;;;17.20;99.90;;;;;;6237602;23;20103;-88
2021/09/26 08:14:54;;;;;;;1.08;0.45;;;17.30;99.90;;;;;;6288128;23;20047;-85
2021/09/26 08:17:20;;;;;;;0.90;0.40;;;17.40;99.90;;;;;;6237628;23;20099;-88
2021/09/26 08:19:47;;;;;;;0.70;0.47;;;17.40;99.90;;;;;;6237421;23;20016;-88
2021/09/26 08:22:15;;;;;;;1.00;0.52;;;17.60;99.90;;;;;;6238077;23;20016;-89
2021/09/26 08:24:42;;;;;;;0.55;0.32;;;17.70;99.90;;;;;;6239814;23;20054;-87
2021/09/26 08:27:09;;;;;;;1.08;0.55;;;17.80;99.90;;;;;;6239598;23;20008;-91
2021/09/26 08:29:36;;;;;;;1.15;0.70;;;17.90;99.90;;;;;;6238993;23;20074;-91
2021/09/26 08:32:05;;;;;;;1.33;0.90;;;17.90;99.90;;;;;;6239330;23;20012;-89
2021/09/26 08:34:32;;;;;;;1.45;0.82;;;17.90;99.90;;;;;;6237185;23;20452;-93
2021/09/26 08:36:59;;;;;;;1.55;0.88;;;18.00;99.90;;;;;;6289680;23;20008;-91
2021/09/26 08:39:26;;;;;;;1.55;0.57;;;18.10;99.90;;;;;;6214359;23;20019;-92
2021/09/26 08:41:54;;;;;;;0.47;0.38;;;18.20;99.90;;;;;;6215062;23;20040;-92
2021/09/26 08:44:22;;;;;;;1.83;0.75;;;18.30;99.90;;;;;;6239349;23;20471;-92
2021/09/26 08:46:52;;;;;;;1.58;0.98;;;18.40;99.90;;;;;;6237328;23;20027;-92
2021/09/26 08:49:20;;;;;;;1.75;0.90;;;18.50;99.90;;;;;;6215438;23;20031;-93
2021/09/26 08:51:49;;;;;;;1.42;0.75;;;18.60;99.90;;;;;;6239153;23;20054;-93
2021/09/26 08:54:17;;;;;;;0.60;0.45;;;18.70;99.90;;;;;;6239149;23;20092;-93
2021/09/26 08:56:44;;;;;;;2.08;0.82;;;18.80;99.90;;;;;;6240202;23;20432;-88
2021/09/26 08:59:12;;;;;;;1.88;1.05;;;18.90;99.90;;;;;;6239252;23;20019;-88
2021/09/26 09:01:39;;;;;;;2.65;0.77;;;19.00;99.90;;;;;;6213919;23;20012;-87
2021/09/26 09:04:06;;;;;;;0.88;0.47;;;19.00;99.90;;;;;;6215107;23;20016;-82
2021/09/26 09:06:46;;;;;;;1.95;0.90;;;19.10;99.90;;;;;;6189262;23;20023;-91
2021/09/26 09:09:19;;;;;;;0.98;0.52;;;19.30;99.90;;;;;;6239152;23;20047;-89
2021/09/26 09:11:59;;;;;;;1.13;0.65;;;19.30;99.90;;;;;;6238806;23;20016;-87
2021/09/26 09:14:26;;;;;;;3.22;1.20;;;19.40;99.90;;;;;;6238716;23;20052;-88
2021/09/26 09:16:55;;;;;;;1.77;0.90;;;19.40;99.90;;;;;;6214187;23;20023;-89
2021/09/26 09:19:23;;;;;;;2.00;0.80;;;19.50;99.90;;;;;;6215273;23;20013;-87
2021/09/26 09:22:15;;;;;;;1.45;0.85;;;19.60;99.90;;;;;;6240162;23;20024;-88
2021/09/26 09:24:42;;;;;;;1.58;0.85;;;19.60;99.90;;;;;;6215734;23;20020;-87
2021/09/26 09:27:08;;;;;;;2.13;1.10;;;19.60;99.90;;;;;;6239064;23;20016;-89
2021/09/26 09:29:38;;;;;;;2.22;1.08;;;19.60;99.90;;;;;;6238694;23;20051;-88
2021/09/26 09:32:16;;;;;;;1.52;0.90;;;19.50;99.90;;;;;;6240026;23;20340;-88
2021/09/26 09:34:43;;;;;;;4.07;1.42;;;19.40;99.90;;;;;;6239378;23;20023;-89
2021/09/26 09:37:18;;;;;;;1.77;1.10;;;19.30;99.90;;;;;;6213688;23;20016;-86
2021/09/26 09:40:11;;;;;;;1.50;0.90;;;19.20;99.90;;;;;;6238149;23;20398;-88
2021/09/26 09:42:43;;;;;;;2.33;1.05;;;19.10;99.90;;;;;;6238321;23;20329;-91
2021/09/26 09:45:46;;;;;;;1.05;0.63;;;19.00;99.90;;;;;;6238617;23;20016;-88
2021/09/26 09:48:20;;;;;;;1.73;0.90;;;19.00;99.90;;;;;;6254159;23;20067;-87
2021/09/26 09:51:01;;;;;;;1.92;0.90;;;19.00;99.90;;;;;;6263335;23;20016;-90
2021/09/26 09:53:47;;;;;;;1.05;0.80;;;19.00;99.90;;;;;;6263785;23;20016;-93
2021/09/26 09:56:19;;;;;;;1.67;0.85;;;19.10;99.90;;;;;;6264663;23;20015;-92
2021/09/26 10:02:41;;;;;;;2.15;1.08;;;19.20;99.90;;;;;;6287604;23;20031;-90
2021/09/26 10:05:35;;;;;;;1.13;0.55;;;19.20;99.90;;;;;;6264394;23;20463;-93
2021/09/26 10:08:38;;;;;;;0.82;0.63;;;19.20;99.90;;;;;;6239760;23;20015;-92
2021/09/26 10:11:11;;;;;;;1.23;0.80;;;19.20;99.90;;;;;;6263055;23;20012;-90
2021/09/26 10:13:41;;;;;;;1.65;0.95;;;19.20;99.90;;;;;;6240212;23;20074;-94
2021/09/26 10:17:17;;;;;;;2.72;1.30;;;19.30;99.90;;;;;;6263676;23;20016;-93
2021/09/26 10:20:17;;;;;;;1.45;0.80;;;19.20;99.90;;;;;;6263918;23;20018;-96
2021/09/26 10:22:46;;;;;;;2.42;0.90;;;19.30;99.90;;;;;;6265914;23;20035;-90
2021/09/26 10:25:13;;;;;;;3.80;1.10;;;19.40;99.90;;;;;;6263800;23;20483;-93
2021/09/26 10:27:40;;;;;;;1.88;0.98;;;19.40;99.90;;;;;;6263129;23;20012;-93
2021/09/26 10:30:10;;;;;;;2.67;0.93;;;19.40;99.90;;;;;;6263475;23;20078;-89
2021/09/26 10:32:44;;;;;;;2.55;0.98;;;19.40;99.90;;;;;;6263306;23;20023;-90
2021/09/26 10:35:11;;;;;;;2.50;0.90;;;19.50;99.90;;;;;;6263557;23;20012;-89
2021/09/26 10:37:40;;;;;;;2.25;0.75;;;19.50;99.90;;;;;;6263152;23;20047;-87
2021/09/26 10:40:08;;;;;;;1.48;1.00;;;19.60;99.90;;;;;;6263062;23;20020;-89
2021/09/26 10:42:37;;;;;;;2.30;1.23;;;19.60;99.90;;;;;;6262988;23;20048;-90
2021/09/26 10:45:07;;;;;;;3.70;1.05;;;19.80;99.90;;;;;;6238442;23;20016;-89
2021/09/26 10:47:38;;;;;;;2.25;0.85;;;19.80;99.90;;;;;;6237623;23;20019;-91
2021/09/26 10:50:15;;;;;;;3.08;1.38;;;20.00;99.90;;;;;;6239649;23;20023;-89
2021/09/26 10:52:44;;;;;;;1.67;0.90;;;20.20;99.90;;;;;;6263082;23;20012;-88
2021/09/26 10:55:14;;;;;;;1.67;0.93;;;20.30;99.90;;;;;;6263206;23;20074;-89
2021/09/26 10:57:48;;;;;;;1.17;0.70;;;20.30;99.90;;;;;;6262886;23;20345;-89
2021/09/26 11:00:37;;;;;;;1.67;0.82;;;20.30;99.90;;;;;;6263466;23;20318;-88
2021/09/26 11:03:07;;;;;;;1.85;0.85;;;20.30;99.90;;;;;;6262455;23;20046;-89
2021/09/26 11:05:38;;;;;;;1.25;0.80;;;20.20;99.90;;;;;;6238211;23;20020;-90
2021/09/26 11:08:11;;;;;;;1.63;0.80;;;20.20;99.90;;;;;;6263609;23;20012;-89
2021/09/26 11:11:00;;;;;;;1.13;0.75;;;20.20;99.90;;;;;;6264130;23;20509;-92
2021/09/26 11:13:51;;;;;;;3.28;1.40;;;20.10;99.90;;;;;;6240162;23;20158;-89
2021/09/26 11:16:58;;;;;;;1.77;1.02;;;20.20;99.90;;;;;;6246973;23;20028;-88
2021/09/26 11:28:39;;;;;;;1.55;0.98;;;20.40;99.90;;;;;;6106947;23;20025;-93
2021/09/26 11:49:38;;;;;;;1.20;0.73;;;21.10;99.90;;;;;;6078242;23;20014;-91
2021/09/26 11:52:05;;;;;;;1.27;0.82;;;21.20;99.90;;;;;;6085104;23;20355;-88
2021/09/26 11:54:32;;;;;;;1.58;0.98;;;21.20;99.90;;;;;;6017544;23;20396;-92
2021/09/26 11:56:59;;;;;;;1.02;0.70;;;21.30;99.90;;;;;;6107321;23;20010;-89
2021/09/26 11:59:35;;;;;;;1.90;0.70;;;21.30;99.90;;;;;;6120039;23;20470;-89
2021/09/26 12:02:14;;;;;;;1.80;0.93;;;21.40;99.90;;;;;;6098695;23;20061;-92
2021/09/26 12:04:41;;;;;;;2.40;1.05;;;21.30;99.90;;;;;;6120034;23;20010;-89
2021/09/26 12:07:10;;;;;;;3.97;1.30;;;21.30;99.90;;;;;;6096474;23;20017;-87
2021/09/26 12:09:47;;;;;;;1.45;0.95;;;21.30;99.90;;;;;;6182707;23;20095;-89
2021/09/26 12:12:20;;;;;;;2.60;1.17;;;21.20;99.90;;;;;;6208654;23;20020;-88
2021/09/26 12:15:06;;;;;;;1.13;0.73;;;21.20;99.90;;;;;;6233588;23;20024;-89
2021/09/26 12:17:36;;;;;;;1.25;0.77;;;21.20;99.90;;;;;;6183888;23;20103;-86
2021/09/26 12:20:11;;;;;;;1.98;1.00;;;21.20;99.90;;;;;;6183317;23;20023;-85
2021/09/26 12:22:39;;;;;;;1.85;0.65;;;21.20;99.90;;;;;;6232406;23;20433;-89
2021/09/26 12:25:24;;;;;;;1.45;0.95;;;21.20;99.90;;;;;;6183364;23;20012;-86
2021/09/26 12:28:06;;;;;;;1.83;1.00;;;21.10;99.90;;;;;;6238230;23;20016;-87
2021/09/26 12:30:39;;;;;;;1.85;0.93;;;21.10;99.90;;;;;;6238781;23;20076;-87
2021/09/26 12:33:17;;;;;;;0.90;0.60;;;21.00;99.90;;;;;;6238461;23;20016;-86
2021/09/26 12:35:48;;;;;;;0.68;0.57;;;21.10;99.90;;;;;;6238195;23;20016;-85
2021/09/26 12:38:45;;;;;;;1.70;0.95;;;21.10;99.90;;;;;;6238374;23;20047;-86
2021/09/26 12:41:27;;;;;;;3.38;1.08;;;21.20;99.90;;;;;;6226722;23;20016;-86
2021/09/26 12:43:59;;;;;;;1.25;0.75;;;21.20;99.90;;;;;;6238222;23;20081;-86
2021/09/26 12:46:32;;;;;;;1.15;0.68;;;21.20;99.90;;;;;;6238731;23;20448;-86
2021/09/26 12:48:59;;;;;;;1.67;0.80;;;21.30;99.90;;;;;;6238294;23;20345;-86
2021/09/26 12:51:36;;;;;;;1.92;1.13;;;21.20;99.90;;;;;;6233558;23;20012;-86
2021/09/26 12:54:05;;;;;;;1.40;0.80;;;21.20;99.90;;;;;;6263791;23;20384;-86
2021/09/26 12:56:37;;;;;;;2.17;0.80;;;21.10;99.90;;;;;;6238617;23;20440;-86
2021/09/26 12:59:25;;;;;;;1.95;0.82;;;21.10;99.90;;;;;;6263397;23;20016;-85
2021/09/26 13:02:10;;;;;;;2.55;0.90;;;21.20;99.90;;;;;;6262993;23;20027;-86
2021/09/26 13:04:39;;;;;;;1.42;0.88;;;21.20;99.90;;;;;;6264051;23;20008;-86
2021/09/26 13:07:06;;;;;;;1.05;0.60;;;21.20;99.90;;;;;;6263176;23;20012;-86
2021/09/26 13:09:40;;;;;;;1.30;0.80;;;21.20;99.90;;;;;;6288571;23;20095;-86
2021/09/26 13:12:45;;;;;;;5.00;1.02;;;21.30;99.90;;;;;;6263064;23;20437;-86
2021/09/26 13:15:12;;;;;;;2.67;1.08;;;21.40;99.90;;;;;;6147956;23;20382;-86
2021/09/26 13:17:39;;;;;;;2.47;0.80;;;21.60;99.90;;;;;;6241603;23;20014;-86
2021/09/26 13:20:20;;;;;;;1.25;0.77;;;21.80;99.90;;;;;;6238081;23;20016;-86
2021/09/26 13:22:47;;;;;;;1.50;0.77;;;22.00;99.90;;;;;;6263117;23;20008;-87
2021/09/26 13:25:14;;;;;;;2.03;0.88;;;22.10;99.90;;;;;;6238030;23;20034;-86
2021/09/26 13:27:45;;;;;;;2.75;1.15;;;22.20;99.90;;;;;;6263283;23;20508;-86
2021/09/26 13:30:32;;;;;;;1.45;0.80;;;22.10;99.90;;;;;;6263728;23;20016;-87
2021/09/26 13:33:16;;;;;;;2.90;1.15;;;22.00;99.90;;;;;;6263354;23;20095;-86
2021/09/26 13:35:44;;;;;;;4.20;1.33;;;22.00;99.90;;;;;;6263818;23;20391;-89
2021/09/26 13:38:27;;;;;;;1.92;1.10;;;21.80;99.90;;;;;;6238475;23;20105;-88